createdAt,value
2023-05-25T00:01:01.827Z,434.00
2023-05-25T00:01:50.577Z,433.00
2023-05-25T00:02:50.713Z,434.00
2023-05-25T00:03:50.607Z,435.00
2023-05-25T00:04:50.562Z,434.00
2023-05-25T00:05:50.557Z,435.00
2023-05-25T00:06:50.559Z,436.00
2023-05-25T00:07:50.564Z,436.00
2023-05-25T00:08:50.565Z,435.00
2023-05-25T00:09:50.574Z,435.00
2023-05-25T00:10:50.571Z,434.00
2023-05-25T00:11:50.602Z,435.00
2023-05-25T00:12:50.581Z,433.00
2023-05-25T00:13:50.570Z,434.00
2023-05-25T00:14:50.586Z,433.00
2023-05-25T00:15:50.574Z,437.00
2023-05-25T00:16:50.580Z,437.00
2023-05-25T00:17:50.610Z,438.00
2023-05-25T00:18:50.558Z,438.00
2023-05-25T00:19:50.601Z,438.00
2023-05-25T00:20:50.580Z,438.00
2023-05-25T00:21:50.566Z,438.00
2023-05-25T00:22:50.616Z,438.00
2023-05-25T00:23:50.677Z,436.00
2023-05-25T00:24:50.749Z,435.00
2023-05-25T00:25:50.799Z,434.00
2023-05-25T00:26:50.862Z,431.00
2023-05-25T00:27:50.952Z,431.00
2023-05-25T00:28:50.989Z,430.00
2023-05-25T00:29:51.055Z,428.00
2023-05-25T00:30:51.785Z,428.00
2023-05-25T00:31:51.165Z,431.00
2023-05-25T00:32:51.256Z,432.00
2023-05-25T00:33:51.284Z,432.00
2023-05-25T00:34:51.343Z,432.00
2023-05-25T00:35:51.418Z,431.00
2023-05-25T00:36:51.470Z,430.00
2023-05-25T00:37:51.527Z,431.00
2023-05-25T00:38:51.575Z,432.00
2023-05-25T00:39:51.624Z,432.00
2023-05-25T00:40:51.693Z,434.00
2023-05-25T00:41:51.741Z,434.00
2023-05-25T00:42:51.804Z,434.00
2023-05-25T00:43:51.888Z,433.00
2023-05-25T00:44:51.948Z,435.00
2023-05-25T00:45:51.979Z,436.00
2023-05-25T00:46:52.450Z,435.00
2023-05-25T00:47:52.075Z,433.00
2023-05-25T00:48:52.029Z,430.00
2023-05-25T00:49:52.088Z,430.00
2023-05-25T00:50:52.144Z,432.00
2023-05-25T00:51:52.201Z,435.00
2023-05-25T00:52:52.260Z,434.00
2023-05-25T00:53:52.329Z,435.00
2023-05-25T00:54:52.360Z,434.00
2023-05-25T00:55:52.412Z,435.00
2023-05-25T00:56:52.480Z,436.00
2023-05-25T00:57:52.538Z,438.00
2023-05-25T00:58:52.662Z,437.00
2023-05-25T00:59:52.685Z,438.00
2023-05-25T01:00:52.708Z,438.00
2023-05-25T01:01:52.809Z,437.00
2023-05-25T01:02:53.125Z,435.00
2023-05-25T01:03:52.899Z,435.00
2023-05-25T01:04:52.944Z,436.00
2023-05-25T01:05:52.998Z,435.00
2023-05-25T01:06:53.065Z,434.00
2023-05-25T01:07:53.111Z,434.00
2023-05-25T01:08:53.190Z,437.00
2023-05-25T01:09:53.220Z,437.00
2023-05-25T01:10:53.288Z,438.00
2023-05-25T01:11:53.346Z,438.00
2023-05-25T01:12:53.406Z,437.00
2023-05-25T01:13:53.462Z,434.00
2023-05-25T01:14:53.532Z,434.00
2023-05-25T01:15:53.713Z,432.00
2023-05-25T01:16:53.698Z,430.00
2023-05-25T01:17:53.755Z,429.00
2023-05-25T01:18:53.755Z,427.00
2023-05-25T01:20:09.038Z,426.00
2023-05-25T01:20:53.833Z,427.00
2023-05-25T01:21:53.797Z,429.00
2023-05-25T01:22:53.803Z,431.00
2023-05-25T01:23:53.795Z,432.00
2023-05-25T01:24:53.794Z,433.00
2023-05-25T01:25:53.791Z,433.00
2023-05-25T01:26:53.791Z,432.00
2023-05-25T01:27:53.797Z,432.00
2023-05-25T01:28:53.800Z,433.00
2023-05-25T01:29:53.800Z,435.00
2023-05-25T01:30:53.795Z,435.00
2023-05-25T01:31:53.880Z,434.00
2023-05-25T01:32:53.921Z,435.00
2023-05-25T01:33:53.792Z,436.00
2023-05-25T01:34:53.793Z,435.00
2023-05-25T01:35:53.786Z,438.00
2023-05-25T01:36:53.805Z,437.00
2023-05-25T01:37:53.786Z,438.00
2023-05-25T01:38:53.786Z,437.00
2023-05-25T01:39:53.844Z,437.00
2023-05-25T01:40:53.898Z,437.00
2023-05-25T01:41:54.776Z,435.00
2023-05-25T01:42:54.012Z,434.00
2023-05-25T01:43:54.076Z,436.00
2023-05-25T01:44:54.132Z,438.00
2023-05-25T01:45:54.188Z,437.00
2023-05-25T01:46:54.247Z,436.00
2023-05-25T01:47:54.345Z,438.00
2023-05-25T01:48:54.368Z,437.00
2023-05-25T01:49:54.425Z,436.00
2023-05-25T01:50:54.474Z,435.00
2023-05-25T01:51:54.592Z,436.00
2023-05-25T01:52:54.587Z,434.00
2023-05-25T01:53:54.656Z,433.00
2023-05-25T01:54:54.709Z,435.00
2023-05-25T01:55:54.761Z,434.00
2023-05-25T01:56:54.819Z,434.00
2023-05-25T01:57:54.877Z,433.00
2023-05-25T01:58:54.936Z,435.00
2023-05-25T01:59:54.988Z,435.00
2023-05-25T02:00:55.086Z,434.00
2023-05-25T02:01:55.223Z,434.00
2023-05-25T02:02:55.199Z,436.00
2023-05-25T02:03:55.260Z,436.00
2023-05-25T02:04:55.270Z,435.00
2023-05-25T02:05:55.334Z,433.00
2023-05-25T02:06:55.386Z,432.00
2023-05-25T02:07:55.450Z,430.00
2023-05-25T02:08:55.494Z,429.00
2023-05-25T02:09:55.547Z,432.00
2023-05-25T02:10:55.598Z,433.00
2023-05-25T02:11:55.651Z,433.00
2023-05-25T02:12:55.706Z,434.00
2023-05-25T02:13:55.760Z,435.00
2023-05-25T02:14:55.815Z,438.00
2023-05-25T02:15:55.879Z,434.00
2023-05-25T02:16:55.922Z,432.00
2023-05-25T02:17:56.046Z,432.00
2023-05-25T02:18:56.041Z,432.00
2023-05-25T02:19:56.175Z,433.00
2023-05-25T02:20:56.164Z,433.00
2023-05-25T02:21:56.224Z,434.00
2023-05-25T02:22:56.278Z,434.00
2023-05-25T02:23:56.346Z,432.00
2023-05-25T02:24:56.422Z,434.00
2023-05-25T02:25:56.477Z,434.00
2023-05-25T02:26:56.530Z,436.00
2023-05-25T02:27:56.598Z,436.00
2023-05-25T02:28:56.680Z,435.00
2023-05-25T02:29:56.710Z,435.00
2023-05-25T02:30:56.809Z,434.00
2023-05-25T02:31:56.823Z,435.00
2023-05-25T02:32:56.908Z,436.00
2023-05-25T02:33:56.958Z,436.00
2023-05-25T02:34:57.020Z,437.00
2023-05-25T02:35:57.084Z,438.00
2023-05-25T02:36:57.118Z,438.00
2023-05-25T02:37:57.182Z,438.00
2023-05-25T02:38:57.247Z,439.00
2023-05-25T02:39:57.350Z,438.00
2023-05-25T02:40:57.361Z,440.00
2023-05-25T02:41:57.445Z,438.00
2023-05-25T02:42:57.474Z,439.00
2023-05-25T02:43:57.534Z,438.00
2023-05-25T02:44:57.595Z,437.00
2023-05-25T02:45:57.662Z,434.00
2023-05-25T02:46:57.776Z,434.00
2023-05-25T02:47:57.834Z,434.00
2023-05-25T02:48:57.838Z,432.00
2023-05-25T02:49:57.904Z,432.00
2023-05-25T02:50:57.983Z,432.00
2023-05-25T02:51:58.058Z,433.00
2023-05-25T02:52:58.127Z,433.00
2023-05-25T02:53:58.139Z,434.00
2023-05-25T02:54:58.202Z,432.00
2023-05-25T02:55:58.259Z,431.00
2023-05-25T02:56:58.314Z,430.00
2023-05-25T02:57:58.365Z,430.00
2023-05-25T02:58:58.418Z,431.00
2023-05-25T02:59:58.466Z,432.00
2023-05-25T03:00:58.562Z,434.00
2023-05-25T03:01:58.582Z,435.00
2023-05-25T03:02:58.704Z,434.00
2023-05-25T03:03:58.812Z,433.00
2023-05-25T03:04:59.256Z,431.00
2023-05-25T03:05:58.882Z,429.00
2023-05-25T03:06:58.930Z,427.00
2023-05-25T03:07:59.020Z,427.00
2023-05-25T03:08:59.066Z,426.00
2023-05-25T03:09:59.092Z,425.00
2023-05-25T03:10:59.160Z,427.00
2023-05-25T03:11:59.216Z,427.00
2023-05-25T03:12:59.293Z,426.00
2023-05-25T03:13:59.354Z,427.00
2023-05-25T03:14:59.417Z,425.00
2023-05-25T03:15:59.467Z,424.00
2023-05-25T03:16:59.657Z,425.00
2023-05-25T03:17:59.618Z,427.00
2023-05-25T03:18:59.645Z,425.00
2023-05-25T03:19:59.752Z,422.00
2023-05-25T03:20:59.781Z,421.00
2023-05-25T03:21:59.840Z,419.00
2023-05-25T03:22:59.905Z,422.00
2023-05-25T03:23:59.993Z,423.00
2023-05-25T03:25:00.029Z,422.00
2023-05-25T03:26:00.163Z,422.00
2023-05-25T03:27:00.159Z,423.00
2023-05-25T03:28:00.223Z,422.00
2023-05-25T03:29:00.286Z,424.00
2023-05-25T03:30:00.350Z,425.00
2023-05-25T03:31:00.409Z,423.00
2023-05-25T03:32:00.606Z,423.00
2023-05-25T03:33:00.612Z,422.00
2023-05-25T03:34:00.589Z,421.00
2023-05-25T03:35:00.666Z,423.00
2023-05-25T03:36:00.710Z,420.00
2023-05-25T03:37:00.779Z,421.00
2023-05-25T03:38:00.830Z,423.00
2023-05-25T03:39:00.895Z,424.00
2023-05-25T03:40:01.031Z,424.00
2023-05-25T03:41:01.002Z,424.00
2023-05-25T03:42:01.097Z,428.00
2023-05-25T03:43:01.120Z,429.00
2023-05-25T03:44:01.190Z,427.00
2023-05-25T03:45:01.253Z,426.00
2023-05-25T03:46:01.327Z,426.00
2023-05-25T03:47:01.387Z,425.00
2023-05-25T03:48:01.479Z,423.00
2023-05-25T03:49:01.500Z,424.00
2023-05-25T03:50:01.553Z,425.00
2023-05-25T03:51:01.610Z,424.00
2023-05-25T03:52:01.699Z,423.00
2023-05-25T03:53:01.746Z,423.00
2023-05-25T03:54:01.802Z,423.00
2023-05-25T03:55:01.863Z,423.00
2023-05-25T03:56:01.953Z,424.00
2023-05-25T03:57:01.993Z,422.00
2023-05-25T03:58:02.093Z,422.00
2023-05-25T03:59:02.095Z,422.00
2023-05-25T04:00:02.167Z,423.00
2023-05-25T04:01:04.348Z,422.00
2023-05-25T04:02:02.209Z,421.00
2023-05-25T04:03:02.326Z,423.00
2023-05-25T04:04:02.361Z,423.00
2023-05-25T04:05:02.209Z,424.00
2023-05-25T04:06:02.246Z,423.00
2023-05-25T04:07:02.215Z,422.00
2023-05-25T04:08:02.225Z,420.00
2023-05-25T04:09:02.226Z,419.00
2023-05-25T04:10:02.232Z,420.00
2023-05-25T04:11:02.264Z,422.00
2023-05-25T04:12:02.282Z,422.00
2023-05-25T04:13:02.221Z,423.00
2023-05-25T04:14:02.247Z,426.00
2023-05-25T04:15:02.223Z,427.00
2023-05-25T04:16:02.250Z,429.00
2023-05-25T04:17:02.226Z,430.00
2023-05-25T04:18:02.258Z,428.00
2023-05-25T04:19:02.228Z,427.00
2023-05-25T04:20:02.240Z,425.00
2023-05-25T04:21:02.200Z,423.00
2023-05-25T04:22:02.213Z,423.00
2023-05-25T04:23:02.224Z,423.00
2023-05-25T04:24:02.217Z,425.00
2023-05-25T04:25:02.219Z,426.00
2023-05-25T04:26:02.215Z,426.00
2023-05-25T04:27:02.206Z,424.00
2023-05-25T04:28:02.287Z,423.00
2023-05-25T04:29:02.341Z,424.00
2023-05-25T04:30:02.373Z,425.00
2023-05-25T04:31:02.434Z,427.00
2023-05-25T04:32:02.588Z,427.00
2023-05-25T04:33:02.699Z,424.00
2023-05-25T04:34:02.613Z,424.00
2023-05-25T04:35:02.676Z,423.00
2023-05-25T04:36:02.730Z,421.00
2023-05-25T04:37:02.792Z,422.00
2023-05-25T04:38:03.091Z,420.00
2023-05-25T04:39:03.018Z,418.00
2023-05-25T04:40:02.982Z,418.00
2023-05-25T04:41:03.063Z,420.00
2023-05-25T04:42:03.105Z,420.00
2023-05-25T04:43:03.176Z,421.00
2023-05-25T04:45:02.243Z,421.00
2023-05-25T04:46:03.274Z,422.00
2023-05-25T04:47:03.238Z,424.00
2023-05-25T04:48:03.315Z,424.00
2023-05-25T04:49:03.241Z,424.00
2023-05-25T04:50:03.260Z,422.00
2023-05-25T04:51:03.280Z,422.00
2023-05-25T04:52:03.257Z,423.00
2023-05-25T04:53:03.256Z,422.00
2023-05-25T04:54:03.257Z,422.00
2023-05-25T04:55:03.270Z,421.00
2023-05-25T04:56:03.266Z,420.00
2023-05-25T04:57:03.255Z,420.00
2023-05-25T04:58:03.254Z,422.00
2023-05-25T04:59:03.257Z,421.00
2023-05-25T05:00:03.305Z,423.00
2023-05-25T05:01:03.320Z,425.00
2023-05-25T05:02:03.263Z,426.00
2023-05-25T05:03:03.331Z,429.00
2023-05-25T05:04:03.311Z,428.00
2023-05-25T05:05:03.276Z,427.00
2023-05-25T05:06:03.304Z,426.00
2023-05-25T05:07:03.277Z,425.00
2023-05-25T05:08:03.282Z,425.00
2023-05-25T05:09:03.305Z,425.00
2023-05-25T05:10:03.372Z,425.00
2023-05-25T05:11:03.437Z,424.00
2023-05-25T05:12:03.480Z,423.00
2023-05-25T05:13:03.542Z,422.00
2023-05-25T05:14:03.610Z,419.00
2023-05-25T05:15:03.651Z,418.00
2023-05-25T05:16:03.742Z,417.00
2023-05-25T05:17:03.841Z,417.00
2023-05-25T05:18:03.862Z,418.00
2023-05-25T05:19:03.906Z,417.00
2023-05-25T05:20:03.989Z,417.00
2023-05-25T05:21:04.010Z,420.00
2023-05-25T05:22:04.085Z,420.00
2023-05-25T05:23:04.129Z,420.00
2023-05-25T05:24:04.366Z,420.00
2023-05-25T05:25:04.244Z,420.00
2023-05-25T05:26:05.291Z,422.00
2023-05-25T05:27:04.913Z,425.00
2023-05-25T05:28:04.400Z,427.00
2023-05-25T05:29:04.456Z,427.00
2023-05-25T05:30:04.557Z,429.00
2023-05-25T05:31:04.637Z,432.00
2023-05-25T05:32:04.750Z,435.00
2023-05-25T05:33:04.808Z,435.00
2023-05-25T05:34:04.785Z,438.00
2023-05-25T05:35:04.791Z,438.00
2023-05-25T05:36:04.840Z,438.00
2023-05-25T05:37:04.914Z,438.00
2023-05-25T05:38:04.954Z,440.00
2023-05-25T05:39:05.003Z,440.00
2023-05-25T05:40:05.056Z,440.00
2023-05-25T05:41:05.118Z,441.00
2023-05-25T05:42:05.171Z,440.00
2023-05-25T05:43:05.857Z,442.00
2023-05-25T05:44:05.369Z,441.00
2023-05-25T05:45:05.366Z,443.00
2023-05-25T05:46:13.302Z,445.00
2023-05-25T05:47:05.417Z,446.00
2023-05-25T05:48:05.969Z,445.00
2023-05-25T05:49:05.872Z,442.00
2023-05-25T05:50:05.428Z,443.00
2023-05-25T05:51:05.416Z,443.00
2023-05-25T05:52:05.419Z,439.00
2023-05-25T05:53:05.435Z,434.00
2023-05-25T05:54:05.875Z,433.00
2023-05-25T05:55:21.059Z,433.00
2023-05-25T05:57:38.244Z,432.00
2023-05-25T05:58:05.439Z,434.00
2023-05-25T05:59:05.876Z,436.00
2023-05-25T06:00:08.697Z,436.00
2023-05-25T06:01:09.096Z,436.00
2023-05-25T06:02:12.940Z,436.00
2023-05-25T06:04:21.080Z,435.00
2023-05-25T06:05:05.467Z,433.00
2023-05-25T06:07:12.855Z,427.00
2023-05-25T06:08:06.233Z,428.00
2023-05-25T06:09:06.475Z,426.00
2023-05-25T06:10:21.099Z,424.00
2023-05-25T06:11:08.743Z,427.00
2023-05-25T06:12:08.711Z,426.00
2023-05-25T06:13:05.475Z,428.00
2023-05-25T06:14:05.496Z,427.00
2023-05-25T06:15:21.092Z,428.00
2023-05-25T06:16:12.895Z,425.00
2023-05-25T06:17:05.639Z,425.00
2023-05-25T06:18:05.545Z,425.00
2023-05-25T06:19:05.497Z,426.00
2023-05-25T06:20:05.540Z,425.00
2023-05-25T06:21:06.484Z,425.00
2023-05-25T06:22:06.498Z,427.00
2023-05-25T06:23:12.909Z,427.00
2023-05-25T06:24:05.505Z,425.00
2023-05-25T06:25:05.490Z,424.00
2023-05-25T06:26:05.495Z,424.00
2023-05-25T06:27:05.506Z,422.00
2023-05-25T06:28:05.524Z,424.00
2023-05-25T06:29:06.533Z,424.00
2023-05-25T06:30:05.495Z,423.00
2023-05-25T06:31:05.892Z,425.00
2023-05-25T06:32:08.768Z,426.00
2023-05-25T06:33:05.565Z,426.00
2023-05-25T06:34:05.495Z,423.00
2023-05-25T06:35:05.508Z,423.00
2023-05-25T06:36:05.537Z,423.00
2023-05-25T06:37:05.514Z,423.00
2023-05-25T06:38:05.526Z,424.00
2023-05-25T06:39:05.983Z,422.00
2023-05-25T06:40:05.550Z,423.00
2023-05-25T06:41:05.626Z,424.00
2023-05-25T06:42:05.726Z,425.00
2023-05-25T06:43:21.136Z,424.00
2023-05-25T06:44:05.919Z,427.00
2023-05-25T06:45:05.535Z,425.00
2023-05-25T06:46:37.453Z,423.00
2023-05-25T06:47:05.566Z,423.00
2023-05-25T06:48:06.595Z,424.00
2023-05-25T06:49:21.503Z,425.00
2023-05-25T06:50:05.568Z,424.00
2023-05-25T06:51:05.582Z,424.00
2023-05-25T06:52:05.667Z,423.00
2023-05-25T06:54:12.985Z,422.00
2023-05-25T06:55:21.172Z,421.00
2023-05-25T06:56:08.832Z,422.00
2023-05-25T06:57:05.574Z,420.00
2023-05-25T06:58:05.576Z,419.00
2023-05-25T06:59:05.611Z,418.00
2023-05-25T07:00:05.592Z,420.00
2023-05-25T07:01:08.788Z,419.00
2023-05-25T07:02:05.582Z,421.00
2023-05-25T07:03:05.607Z,422.00
2023-05-25T07:04:05.913Z,424.00
2023-05-25T07:05:05.673Z,424.00
2023-05-25T07:06:05.586Z,426.00
2023-05-25T07:07:05.579Z,428.00
2023-05-25T07:08:06.060Z,429.00
2023-05-25T07:09:05.587Z,430.00
2023-05-25T07:10:05.580Z,431.00
2023-05-25T07:11:05.564Z,429.00
2023-05-25T07:12:05.566Z,427.00
2023-05-25T07:13:05.578Z,427.00
2023-05-25T07:14:05.555Z,425.00
2023-05-25T07:15:05.566Z,423.00
2023-05-25T07:16:05.605Z,425.00
2023-05-25T07:17:05.551Z,424.00
2023-05-25T07:18:05.581Z,425.00
2023-05-25T07:19:05.563Z,424.00
2023-05-25T07:20:08.843Z,425.00
2023-05-25T07:21:06.157Z,423.00
2023-05-25T07:22:05.540Z,422.00
2023-05-25T07:23:12.995Z,422.00
2023-05-25T07:24:06.568Z,423.00
2023-05-25T07:25:21.166Z,427.00
2023-05-25T07:26:06.319Z,429.00
2023-05-25T07:27:05.530Z,428.00
2023-05-25T07:28:05.613Z,430.00
2023-05-25T07:29:06.893Z,429.00
2023-05-25T07:30:05.538Z,428.00
2023-05-25T07:31:05.530Z,426.00
2023-05-25T07:32:05.519Z,426.00
2023-05-25T07:33:08.720Z,428.00
2023-05-25T07:34:05.977Z,430.00
2023-05-25T07:35:05.509Z,433.00
2023-05-25T07:36:05.527Z,432.00
2023-05-25T07:37:05.522Z,433.00
2023-05-25T07:38:12.897Z,433.00
2023-05-25T07:39:05.935Z,431.00
2023-05-25T07:40:05.489Z,430.00
2023-05-25T07:41:05.501Z,432.00
2023-05-25T07:42:06.479Z,433.00
2023-05-25T07:43:08.266Z,435.00
2023-05-25T07:45:21.081Z,439.00
2023-05-25T07:46:05.459Z,439.00
2023-05-25T07:47:05.559Z,440.00
2023-05-25T07:48:06.015Z,440.00
2023-05-25T07:49:05.421Z,437.00
2023-05-25T07:50:05.421Z,439.00
2023-05-25T07:51:05.424Z,448.00
2023-05-25T07:52:05.419Z,502.00
2023-05-25T07:53:05.419Z,587.00
2023-05-25T07:54:05.456Z,578.00
2023-05-25T07:55:05.456Z,582.00
2023-05-25T07:56:05.413Z,580.00
2023-05-25T07:57:05.386Z,573.00
2023-05-25T07:58:05.447Z,558.00
2023-05-25T07:59:06.362Z,543.00
2023-05-25T08:00:05.357Z,536.00
2023-05-25T08:01:05.468Z,531.00
2023-05-25T08:02:05.893Z,526.00
2023-05-25T08:03:08.627Z,522.00
2023-05-25T08:04:05.409Z,521.00
2023-05-25T08:05:05.513Z,519.00
2023-05-25T08:06:05.288Z,514.00
2023-05-25T08:07:05.282Z,508.00
2023-05-25T08:08:05.434Z,508.00
2023-05-25T08:09:05.428Z,507.00
2023-05-25T08:10:05.238Z,503.00
2023-05-25T08:11:05.250Z,501.00
2023-05-25T08:12:24.607Z,499.00
2023-05-25T08:13:05.197Z,498.00
2023-05-25T08:14:05.429Z,495.00
2023-05-25T08:15:05.174Z,494.00
2023-05-25T08:16:05.174Z,493.00
2023-05-25T08:17:05.219Z,494.00
2023-05-25T08:18:05.450Z,493.00
2023-05-25T08:19:05.161Z,492.00
2023-05-25T08:20:05.233Z,489.00
2023-05-25T08:21:05.160Z,490.00
2023-05-25T08:22:05.144Z,487.00
2023-05-25T08:23:05.123Z,488.00
2023-05-25T08:24:05.453Z,487.00
2023-05-25T08:25:05.172Z,488.00
2023-05-25T08:26:15.536Z,485.00
2023-05-25T08:27:05.137Z,480.00
2023-05-25T08:28:05.111Z,477.00
2023-05-25T08:29:05.100Z,474.00
2023-05-25T08:30:05.081Z,473.00
2023-05-25T08:31:05.149Z,473.00
2023-05-25T08:32:05.082Z,473.00
2023-05-25T08:33:05.105Z,472.00
2023-05-25T08:34:05.451Z,471.00
2023-05-25T08:35:05.043Z,471.00
2023-05-25T08:36:05.082Z,472.00
2023-05-25T08:37:05.040Z,472.00
2023-05-25T08:38:05.426Z,473.00
2023-05-25T08:39:05.446Z,473.00
2023-05-25T08:40:05.018Z,471.00
2023-05-25T08:41:05.015Z,470.00
2023-05-25T08:42:05.033Z,469.00
2023-05-25T08:43:05.019Z,466.00
2023-05-25T08:44:05.462Z,464.00
2023-05-25T08:46:20.600Z,462.00
2023-05-25T08:47:05.005Z,461.00
2023-05-25T08:48:05.094Z,459.00
2023-05-25T08:49:05.096Z,458.00
2023-05-25T08:50:04.942Z,461.00
2023-05-25T08:51:04.932Z,459.00
2023-05-25T08:52:04.947Z,458.00
2023-05-25T08:53:04.911Z,455.00
2023-05-25T08:54:04.900Z,451.00
2023-05-25T08:55:04.931Z,450.00
2023-05-25T08:56:04.953Z,451.00
2023-05-25T08:57:04.889Z,453.00
2023-05-25T08:58:04.864Z,454.00
2023-05-25T08:59:06.726Z,453.00
2023-05-25T09:00:04.858Z,452.00
2023-05-25T09:01:04.936Z,455.00
2023-05-25T09:02:04.857Z,455.00
2023-05-25T09:03:04.958Z,456.00
2023-05-25T09:04:05.073Z,456.00
2023-05-25T09:05:04.823Z,455.00
2023-05-25T09:06:04.816Z,455.00
2023-05-25T09:07:10.733Z,452.00
2023-05-25T09:08:04.810Z,451.00
2023-05-25T09:09:04.814Z,453.00
2023-05-25T09:10:04.819Z,454.00
2023-05-25T09:11:04.799Z,453.00
2023-05-25T09:12:04.784Z,453.00
2023-05-25T09:13:19.704Z,452.00
2023-05-25T09:14:05.481Z,452.00
2023-05-25T09:15:04.754Z,451.00
2023-05-25T09:16:07.973Z,452.00
2023-05-25T09:17:04.713Z,453.00
2023-05-25T09:18:05.481Z,452.00
2023-05-25T09:19:04.700Z,451.00
2023-05-25T09:20:04.696Z,452.00
2023-05-25T09:21:04.748Z,451.00
2023-05-25T09:22:15.073Z,451.00
2023-05-25T09:23:04.984Z,451.00
2023-05-25T09:24:04.692Z,452.00
2023-05-25T09:25:04.660Z,466.00
2023-05-25T09:26:04.951Z,477.00
2023-05-25T09:27:04.642Z,495.00
2023-05-25T09:28:24.240Z,524.00
2023-05-25T09:29:04.665Z,541.00
2023-05-25T09:30:04.950Z,608.00
2023-05-25T09:31:04.659Z,634.00
2023-05-25T09:32:05.660Z,658.00
2023-05-25T09:34:11.987Z,722.00
2023-05-25T09:35:07.783Z,730.00
2023-05-25T09:36:36.616Z,739.00
2023-05-25T09:37:05.043Z,822.00
2023-05-25T09:38:12.283Z,822.00
2023-05-25T09:39:05.033Z,816.00
2023-05-25T09:40:04.495Z,817.00
2023-05-25T09:41:04.485Z,848.00
2023-05-25T09:43:05.444Z,869.00
2023-05-25T09:44:11.185Z,875.00
2023-05-25T09:45:04.469Z,877.00
2023-05-25T09:46:04.449Z,884.00
2023-05-25T09:47:04.532Z,890.00
2023-05-25T09:48:04.430Z,893.00
2023-05-25T09:49:04.335Z,897.00
2023-05-25T09:50:04.305Z,902.00
2023-05-25T09:51:04.334Z,907.00
2023-05-25T09:52:04.262Z,908.00
2023-05-25T09:53:07.500Z,908.00
2023-05-25T09:54:11.877Z,906.00
2023-05-25T09:55:04.273Z,908.00
2023-05-25T09:56:04.481Z,908.00
2023-05-25T09:57:04.238Z,906.00
2023-05-25T09:58:04.153Z,905.00
2023-05-25T09:59:04.533Z,905.00
2023-05-25T10:00:05.187Z,903.00
2023-05-25T10:01:04.131Z,905.00
2023-05-25T10:02:04.315Z,898.00
2023-05-25T10:03:04.552Z,894.00
2023-05-25T10:04:05.448Z,893.00
2023-05-25T10:05:04.278Z,892.00
2023-05-25T10:06:03.531Z,889.00
2023-05-25T10:07:04.264Z,889.00
2023-05-25T10:08:04.502Z,888.00
2023-05-25T10:09:04.226Z,889.00
2023-05-25T10:10:05.502Z,886.00
2023-05-25T10:11:07.537Z,891.00
2023-05-25T10:12:04.217Z,896.00
2023-05-25T10:13:04.222Z,895.00
2023-05-25T10:14:07.804Z,900.00
2023-05-25T10:15:04.142Z,903.00
2023-05-25T10:16:04.244Z,903.00
2023-05-25T10:17:04.116Z,904.00
2023-05-25T10:18:04.112Z,899.00
2023-05-25T10:19:04.502Z,891.00
2023-05-25T10:20:04.071Z,879.00
2023-05-25T10:21:05.019Z,862.00
2023-05-25T10:22:04.177Z,855.00
2023-05-25T10:23:03.957Z,859.00
2023-05-25T10:24:03.951Z,864.00
2023-05-25T10:25:04.060Z,872.00
2023-05-25T10:26:03.896Z,881.00
2023-05-25T10:27:14.601Z,881.00
2023-05-25T10:28:03.854Z,877.00
2023-05-25T10:29:03.985Z,869.00
2023-05-25T10:30:03.818Z,839.00
2023-05-25T10:31:03.997Z,821.00
2023-05-25T10:32:03.912Z,801.00
2023-05-25T10:33:03.816Z,779.00
2023-05-25T10:34:03.978Z,767.00
2023-05-25T10:35:03.757Z,754.00
2023-05-25T10:37:03.685Z,703.00
2023-05-25T10:38:03.680Z,695.00
2023-05-25T10:39:03.980Z,685.00
2023-05-25T10:40:03.641Z,680.00
2023-05-25T10:41:03.982Z,678.00
2023-05-25T10:42:03.590Z,675.00
2023-05-25T10:43:03.572Z,669.00
2023-05-25T10:44:03.990Z,664.00
2023-05-25T10:45:03.546Z,658.00
2023-05-25T10:46:03.530Z,654.00
2023-05-25T10:47:03.564Z,651.00
2023-05-25T10:48:03.521Z,648.00
2023-05-25T10:49:03.476Z,645.00
2023-05-25T10:50:03.461Z,641.00
2023-05-25T10:51:03.452Z,638.00
2023-05-25T10:52:03.408Z,631.00
2023-05-25T10:53:03.418Z,627.00
2023-05-25T10:54:03.534Z,626.00
2023-05-25T10:55:03.485Z,626.00
2023-05-25T10:56:03.483Z,620.00
2023-05-25T10:57:03.349Z,619.00
2023-05-25T10:58:03.307Z,617.00
2023-05-25T10:59:03.487Z,615.00
2023-05-25T11:00:35.177Z,612.00
2023-05-25T11:01:03.435Z,608.00
2023-05-25T11:02:03.361Z,604.00
2023-05-25T11:03:03.272Z,606.00
2023-05-25T11:04:03.189Z,605.00
2023-05-25T11:05:03.169Z,603.00
2023-05-25T11:06:03.483Z,600.00
2023-05-25T11:07:03.168Z,600.00
2023-05-25T11:08:10.794Z,599.00
2023-05-25T11:09:03.112Z,595.00
2023-05-25T11:10:03.056Z,591.00
2023-05-25T11:11:03.086Z,588.00
2023-05-25T11:12:03.067Z,586.00
2023-05-25T11:13:03.012Z,583.00
2023-05-25T11:14:03.485Z,581.00
2023-05-25T11:15:02.975Z,579.00
2023-05-25T11:16:02.949Z,575.00
2023-05-25T11:17:03.009Z,571.00
2023-05-25T11:18:02.992Z,569.00
2023-05-25T11:19:02.996Z,567.00
2023-05-25T11:20:02.880Z,565.00
2023-05-25T11:21:02.932Z,565.00
2023-05-25T11:22:02.829Z,565.00
2023-05-25T11:23:03.045Z,565.00
2023-05-25T11:24:02.870Z,562.00
2023-05-25T11:25:03.138Z,561.00
2023-05-25T11:26:02.747Z,558.00
2023-05-25T11:27:02.725Z,553.00
2023-05-25T11:28:02.715Z,550.00
2023-05-25T11:29:02.690Z,547.00
2023-05-25T11:30:02.669Z,544.00
2023-05-25T11:31:02.700Z,542.00
2023-05-25T11:32:03.085Z,541.00
2023-05-25T11:33:02.728Z,538.00
2023-05-25T11:34:02.612Z,536.00
2023-05-25T11:35:03.056Z,535.00
2023-05-25T11:36:02.588Z,531.00
2023-05-25T11:37:02.651Z,528.00
2023-05-25T11:38:02.665Z,527.00
2023-05-25T11:39:06.846Z,525.00
2023-05-25T11:40:03.024Z,522.00
2023-05-25T11:41:02.668Z,523.00
2023-05-25T11:42:02.648Z,520.00
2023-05-25T11:43:02.625Z,519.00
2023-05-25T11:44:03.133Z,517.00
2023-05-25T11:45:02.607Z,515.00
2023-05-25T11:46:02.621Z,513.00
2023-05-25T11:47:02.611Z,511.00
2023-05-25T11:48:02.595Z,508.00
2023-05-25T11:49:02.550Z,504.00
2023-05-25T11:50:03.126Z,505.00
2023-05-25T11:51:02.496Z,502.00
2023-05-25T11:52:02.490Z,501.00
2023-05-25T11:53:02.476Z,501.00
2023-05-25T11:54:02.461Z,501.00
2023-05-25T11:55:02.466Z,500.00
2023-05-25T11:56:08.013Z,500.00
2023-05-25T11:57:02.422Z,502.00
2023-05-25T11:58:02.436Z,505.00
2023-05-25T11:59:02.413Z,511.00
2023-05-25T12:00:02.410Z,512.00
2023-05-25T12:01:02.361Z,511.00
2023-05-25T12:02:02.348Z,507.00
2023-05-25T12:03:02.471Z,502.00
2023-05-25T12:04:02.559Z,497.00
2023-05-25T12:05:02.516Z,497.00
2023-05-25T12:06:02.313Z,502.00
2023-05-25T12:07:02.343Z,505.00
2023-05-25T12:08:02.363Z,508.00
2023-05-25T12:09:02.955Z,515.00
2023-05-25T12:10:02.381Z,517.00
2023-05-25T12:11:02.285Z,516.00
2023-05-25T12:12:03.001Z,515.00
2023-05-25T12:13:02.300Z,516.00
2023-05-25T12:14:02.302Z,515.00
2023-05-25T12:15:03.635Z,515.00
2023-05-25T12:16:02.523Z,513.00
2023-05-25T12:17:02.906Z,511.00
2023-05-25T12:18:02.583Z,512.00
2023-05-25T12:19:02.284Z,512.00
2023-05-25T12:20:02.363Z,509.00
2023-05-25T12:21:02.283Z,508.00
2023-05-25T12:22:02.615Z,508.00
2023-05-25T12:23:02.428Z,507.00
2023-05-25T12:24:02.314Z,503.00
2023-05-25T12:25:02.750Z,500.00
2023-05-25T12:26:01.736Z,499.00
2023-05-25T12:27:02.266Z,502.00
2023-05-25T12:28:02.279Z,503.00
2023-05-25T12:29:02.210Z,504.00
2023-05-25T12:30:02.231Z,502.00
2023-05-25T12:31:03.067Z,499.00
2023-05-25T12:32:02.189Z,496.00
2023-05-25T12:33:04.044Z,495.00
2023-05-25T12:34:03.121Z,496.00
2023-05-25T12:35:02.611Z,494.00
2023-05-25T12:36:02.114Z,490.00
2023-05-25T12:37:02.149Z,485.00
2023-05-25T12:38:02.237Z,484.00
2023-05-25T12:39:02.093Z,482.00